• NOTAM LFNR

     Durée permanente depuis 22/02/21 12:00Z
    E) UTILISATION DE L'AERODROME LIMITEE: UTILISATION PAR DES USAGERS EXTERIEURS SOUMISE A AUTORISATION : DEMANDE OBLIGATOIRE AUPRES DE L'EXPLOITANT VIA WWW.AUABLF.INFO REF AD 2 LFNR TXT 01











  • PHOTOS SATELLITE

CARTE TEMSI

CARTE WINTEM

  • Vent en surface

  • Rafales en surface

  • ANIMATION RADAR

  • METAR/TAF LFML (MARSEILLE-PROVENCE)

    LFML 062100Z AUTO 30007KT CAVOK 07/02 Q1016 NOSIG

    TAF LFML 062000Z 0621/0803 33010KT CAVOK TX12/0713Z TN03/0706Z TEMPO 0621/0711 VRB04KT BECMG 0714/0716 10010KT BECMG 0716/0718 BKN014 OVC060 TEMPO 0719/0724 18015KT 3000 RA BKN008

    METAR/TAF LFMY

    LFMY 062100Z AUTO 30003KT 270V330 CAVOK 05/00 Q1016

    TAF LFMY 061400Z 0615/0715 33012KT CAVOK TX11/0713Z TN03/0706Z TEMPO 0615/0617 33015G25KT BECMG 0620/0622 VRB02KT BECMG 0707/0709 33010KT

  • COMM' CLUB

    Bienvenue à l'Aéro Club Louis Bonte